sensor_id;sensor_type;location;lat;lon;timestamp;P1;durP1;ratioP1;P2;durP2;ratioP2
9986;SDS011;5033;46.310;11.214;2023-03-19T00:00:11;18.42;;;16.42;;
9986;SDS011;5033;46.310;11.214;2023-03-19T00:02:42;17.58;;;15.60;;
9986;SDS011;5033;46.310;11.214;2023-03-19T00:05:13;18.85;;;15.75;;
9986;SDS011;5033;46.310;11.214;2023-03-19T00:07:41;22.67;;;18.48;;
9986;SDS011;5033;46.310;11.214;2023-03-19T00:10:08;23.80;;;19.13;;
9986;SDS011;5033;46.310;11.214;2023-03-19T00:12:37;20.42;;;17.00;;
9986;SDS011;5033;46.310;11.214;2023-03-19T00:15:05;21.02;;;18.02;;
9986;SDS011;5033;46.310;11.214;2023-03-19T00:17:38;20.10;;;16.42;;
9986;SDS011;5033;46.310;11.214;2023-03-19T00:20:06;19.42;;;16.73;;
9986;SDS011;5033;46.310;11.214;2023-03-19T00:22:35;18.90;;;16.27;;
9986;SDS011;5033;46.310;11.214;2023-03-19T00:25:02;18.58;;;16.38;;
9986;SDS011;5033;46.310;11.214;2023-03-19T00:27:30;20.73;;;17.58;;
9986;SDS011;5033;46.310;11.214;2023-03-19T00:36:17;18.80;;;15.23;;
9986;SDS011;5033;46.310;11.214;2023-03-19T00:38:44;19.08;;;15.82;;
9986;SDS011;5033;46.310;11.214;2023-03-19T00:41:12;19.63;;;16.13;;
9986;SDS011;5033;46.310;11.214;2023-03-19T00:43:41;16.50;;;14.65;;
9986;SDS011;5033;46.310;11.214;2023-03-19T00:46:08;18.00;;;16.05;;
9986;SDS011;5033;46.310;11.214;2023-03-19T00:48:35;19.38;;;16.48;;
9986;SDS011;5033;46.310;11.214;2023-03-19T00:51:02;18.95;;;15.75;;
9986;SDS011;5033;46.310;11.214;2023-03-19T00:53:30;22.58;;;18.08;;
9986;SDS011;5033;46.310;11.214;2023-03-19T00:55:58;25.92;;;20.95;;
9986;SDS011;5033;46.310;11.214;2023-03-19T00:58:25;22.80;;;19.05;;
9986;SDS011;5033;46.310;11.214;2023-03-19T01:00:52;24.70;;;19.15;;
9986;SDS011;5033;46.310;11.214;2023-03-19T01:03:19;19.38;;;17.15;;
9986;SDS011;5033;46.310;11.214;2023-03-19T01:05:47;19.67;;;17.27;;
9986;SDS011;5033;46.310;11.214;2023-03-19T01:08:14;19.70;;;16.35;;
9986;SDS011;5033;46.310;11.214;2023-03-19T01:10:42;22.98;;;18.60;;
9986;SDS011;5033;46.310;11.214;2023-03-19T01:13:09;18.88;;;16.25;;
9986;SDS011;5033;46.310;11.214;2023-03-19T01:15:37;20.80;;;17.38;;
9986;SDS011;5033;46.310;11.214;2023-03-19T01:18:04;22.15;;;17.52;;
9986;SDS011;5033;46.310;11.214;2023-03-19T01:20:32;18.10;;;16.17;;
9986;SDS011;5033;46.310;11.214;2023-03-19T01:22:59;20.33;;;16.73;;
9986;SDS011;5033;46.310;11.214;2023-03-19T01:25:26;19.25;;;16.35;;
9986;SDS011;5033;46.310;11.214;2023-03-19T01:27:55;21.73;;;17.85;;
9986;SDS011;5033;46.310;11.214;2023-03-19T01:30:22;19.35;;;16.67;;
9986;SDS011;5033;46.310;11.214;2023-03-19T01:32:49;19.75;;;17.25;;
9986;SDS011;5033;46.310;11.214;2023-03-19T01:35:16;19.17;;;16.27;;
9986;SDS011;5033;46.310;11.214;2023-03-19T01:37:43;21.27;;;17.20;;
9986;SDS011;5033;46.310;11.214;2023-03-19T01:40:11;22.65;;;19.92;;
9986;SDS011;5033;46.310;11.214;2023-03-19T01:42:52;19.77;;;16.92;;
9986;SDS011;5033;46.310;11.214;2023-03-19T01:48:20;21.92;;;18.13;;
9986;SDS011;5033;46.310;11.214;2023-03-19T01:50:53;20.10;;;16.80;;
9986;SDS011;5033;46.310;11.214;2023-03-19T01:53:22;20.30;;;16.88;;
9986;SDS011;5033;46.310;11.214;2023-03-19T01:55:54;18.88;;;16.42;;
9986;SDS011;5033;46.310;11.214;2023-03-19T01:58:25;17.90;;;15.88;;
9986;SDS011;5033;46.310;11.214;2023-03-19T02:00:52;19.48;;;16.33;;
9986;SDS011;5033;46.310;11.214;2023-03-19T02:03:21;18.10;;;14.43;;
9986;SDS011;5033;46.310;11.214;2023-03-19T02:05:49;17.80;;;15.50;;
9986;SDS011;5033;46.310;11.214;2023-03-19T02:08:18;18.38;;;16.48;;
9986;SDS011;5033;46.310;11.214;2023-03-19T02:10:47;21.70;;;18.23;;
9986;SDS011;5033;46.310;11.214;2023-03-19T02:13:14;23.17;;;18.75;;
9986;SDS011;5033;46.310;11.214;2023-03-19T02:15:43;19.02;;;16.83;;
9986;SDS011;5033;46.310;11.214;2023-03-19T02:18:10;20.10;;;17.58;;
9986;SDS011;5033;46.310;11.214;2023-03-19T02:20:40;18.70;;;16.63;;
9986;SDS011;5033;46.310;11.214;2023-03-19T02:23:13;18.65;;;16.65;;
9986;SDS011;5033;46.310;11.214;2023-03-19T02:28:38;17.73;;;15.65;;
9986;SDS011;5033;46.310;11.214;2023-03-19T02:31:08;18.40;;;16.00;;
9986;SDS011;5033;46.310;11.214;2023-03-19T02:33:35;17.60;;;15.38;;
9986;SDS011;5033;46.310;11.214;2023-03-19T02:36:02;17.02;;;15.23;;
9986;SDS011;5033;46.310;11.214;2023-03-19T02:38:33;17.08;;;14.98;;
9986;SDS011;5033;46.310;11.214;2023-03-19T02:41:01;21.42;;;16.67;;
9986;SDS011;5033;46.310;11.214;2023-03-19T02:43:32;16.85;;;14.98;;
9986;SDS011;5033;46.310;11.214;2023-03-19T02:46:00;16.90;;;15.10;;
9986;SDS011;5033;46.310;11.214;2023-03-19T02:48:28;17.13;;;15.23;;
9986;SDS011;5033;46.310;11.214;2023-03-19T02:50:55;17.90;;;15.90;;
9986;SDS011;5033;46.310;11.214;2023-03-19T02:53:22;16.23;;;14.25;;
9986;SDS011;5033;46.310;11.214;2023-03-19T02:55:49;15.30;;;13.45;;
9986;SDS011;5033;46.310;11.214;2023-03-19T02:58:16;16.33;;;14.38;;
9986;SDS011;5033;46.310;11.214;2023-03-19T03:00:45;15.88;;;14.13;;
9986;SDS011;5033;46.310;11.214;2023-03-19T03:03:12;18.25;;;15.88;;
9986;SDS011;5033;46.310;11.214;2023-03-19T03:05:39;18.42;;;15.85;;
9986;SDS011;5033;46.310;11.214;2023-03-19T03:08:06;15.63;;;13.98;;
9986;SDS011;5033;46.310;11.214;2023-03-19T03:10:33;17.52;;;15.63;;
9986;SDS011;5033;46.310;11.214;2023-03-19T03:13:00;15.88;;;14.15;;
9986;SDS011;5033;46.310;11.214;2023-03-19T03:15:27;17.20;;;15.27;;
9986;SDS011;5033;46.310;11.214;2023-03-19T03:17:56;17.77;;;15.18;;
9986;SDS011;5033;46.310;11.214;2023-03-19T03:20:23;18.15;;;15.55;;
9986;SDS011;5033;46.310;11.214;2023-03-19T03:22:50;17.10;;;14.90;;
9986;SDS011;5033;46.310;11.214;2023-03-19T03:25:17;18.35;;;15.55;;
9986;SDS011;5033;46.310;11.214;2023-03-19T03:27:45;16.42;;;14.73;;
9986;SDS011;5033;46.310;11.214;2023-03-19T03:30:12;16.77;;;13.63;;
9986;SDS011;5033;46.310;11.214;2023-03-19T03:32:40;15.98;;;14.13;;
9986;SDS011;5033;46.310;11.214;2023-03-19T03:35:09;18.67;;;15.30;;
9986;SDS011;5033;46.310;11.214;2023-03-19T03:37:36;17.20;;;14.95;;
9986;SDS011;5033;46.310;11.214;2023-03-19T03:40:04;16.80;;;15.07;;
9986;SDS011;5033;46.310;11.214;2023-03-19T03:42:32;16.73;;;14.45;;
9986;SDS011;5033;46.310;11.214;2023-03-19T03:45:01;18.90;;;16.27;;
9986;SDS011;5033;46.310;11.214;2023-03-19T03:47:28;17.77;;;15.07;;
9986;SDS011;5033;46.310;11.214;2023-03-19T03:49:56;18.15;;;16.17;;
9986;SDS011;5033;46.310;11.214;2023-03-19T03:52:24;14.70;;;13.13;;
9986;SDS011;5033;46.310;11.214;2023-03-19T03:54:55;17.70;;;15.15;;
9986;SDS011;5033;46.310;11.214;2023-03-19T03:57:22;18.55;;;15.93;;
9986;SDS011;5033;46.310;11.214;2023-03-19T03:59:50;18.85;;;15.73;;
9986;SDS011;5033;46.310;11.214;2023-03-19T04:02:17;19.25;;;16.23;;
9986;SDS011;5033;46.310;11.214;2023-03-19T04:04:44;17.23;;;15.38;;
9986;SDS011;5033;46.310;11.214;2023-03-19T04:07:11;16.73;;;14.93;;
9986;SDS011;5033;46.310;11.214;2023-03-19T04:09:40;21.13;;;17.80;;
9986;SDS011;5033;46.310;11.214;2023-03-19T04:12:07;20.10;;;17.30;;
9986;SDS011;5033;46.310;11.214;2023-03-19T04:14:35;18.35;;;15.77;;
9986;SDS011;5033;46.310;11.214;2023-03-19T04:17:02;19.80;;;15.38;;
9986;SDS011;5033;46.310;11.214;2023-03-19T04:19:29;18.10;;;16.20;;
9986;SDS011;5033;46.310;11.214;2023-03-19T04:21:56;18.13;;;15.60;;
9986;SDS011;5033;46.310;11.214;2023-03-19T04:24:23;17.08;;;15.27;;
9986;SDS011;5033;46.310;11.214;2023-03-19T04:26:52;18.13;;;15.45;;
9986;SDS011;5033;46.310;11.214;2023-03-19T04:29:19;18.00;;;15.90;;
9986;SDS011;5033;46.310;11.214;2023-03-19T04:31:47;16.92;;;15.10;;
9986;SDS011;5033;46.310;11.214;2023-03-19T04:34:13;17.92;;;16.10;;
9986;SDS011;5033;46.310;11.214;2023-03-19T04:36:41;17.05;;;15.25;;
9986;SDS011;5033;46.310;11.214;2023-03-19T04:39:08;19.45;;;16.73;;
9986;SDS011;5033;46.310;11.214;2023-03-19T04:41:35;18.05;;;15.90;;
9986;SDS011;5033;46.310;11.214;2023-03-19T04:44:04;17.85;;;15.95;;
9986;SDS011;5033;46.310;11.214;2023-03-19T04:46:31;19.02;;;17.02;;
9986;SDS011;5033;46.310;11.214;2023-03-19T04:48:58;18.77;;;15.70;;
9986;SDS011;5033;46.310;11.214;2023-03-19T04:51:25;22.65;;;17.77;;
9986;SDS011;5033;46.310;11.214;2023-03-19T04:53:52;16.90;;;14.73;;
9986;SDS011;5033;46.310;11.214;2023-03-19T04:56:20;21.25;;;16.27;;
9986;SDS011;5033;46.310;11.214;2023-03-19T04:58:46;20.45;;;16.40;;
9986;SDS011;5033;46.310;11.214;2023-03-19T05:01:15;17.10;;;15.30;;
9986;SDS011;5033;46.310;11.214;2023-03-19T05:03:42;17.73;;;15.48;;
9986;SDS011;5033;46.310;11.214;2023-03-19T05:06:09;17.95;;;15.02;;
9986;SDS011;5033;46.310;11.214;2023-03-19T05:08:36;19.70;;;17.27;;
9986;SDS011;5033;46.310;11.214;2023-03-19T05:11:03;17.98;;;16.08;;
9986;SDS011;5033;46.310;11.214;2023-03-19T05:13:31;16.30;;;14.60;;
9986;SDS011;5033;46.310;11.214;2023-03-19T05:15:58;19.30;;;17.23;;
9986;SDS011;5033;46.310;11.214;2023-03-19T05:18:27;18.90;;;16.58;;
9986;SDS011;5033;46.310;11.214;2023-03-19T05:20:53;16.77;;;14.98;;
9986;SDS011;5033;46.310;11.214;2023-03-19T05:23:21;16.80;;;14.98;;
9986;SDS011;5033;46.310;11.214;2023-03-19T05:25:48;16.17;;;14.52;;
9986;SDS011;5033;46.310;11.214;2023-03-19T05:28:15;16.85;;;15.13;;
9986;SDS011;5033;46.310;11.214;2023-03-19T05:30:42;20.17;;;15.52;;
9986;SDS011;5033;46.310;11.214;2023-03-19T05:33:09;17.10;;;15.27;;
9986;SDS011;5033;46.310;11.214;2023-03-19T05:35:38;19.65;;;15.50;;
9986;SDS011;5033;46.310;11.214;2023-03-19T05:38:05;18.13;;;15.02;;
9986;SDS011;5033;46.310;11.214;2023-03-19T05:40:32;17.65;;;15.82;;
9986;SDS011;5033;46.310;11.214;2023-03-19T05:43:00;19.27;;;16.25;;
9986;SDS011;5033;46.310;11.214;2023-03-19T05:45:27;17.58;;;15.68;;
9986;SDS011;5033;46.310;11.214;2023-03-19T05:47:54;17.77;;;15.85;;
9986;SDS011;5033;46.310;11.214;2023-03-19T05:50:21;20.05;;;17.30;;
9986;SDS011;5033;46.310;11.214;2023-03-19T05:52:49;19.98;;;17.30;;
9986;SDS011;5033;46.310;11.214;2023-03-19T05:55:16;16.02;;;14.30;;
9986;SDS011;5033;46.310;11.214;2023-03-19T05:57:43;17.67;;;15.77;;
9986;SDS011;5033;46.310;11.214;2023-03-19T06:00:10;18.17;;;16.20;;
9986;SDS011;5033;46.310;11.214;2023-03-19T06:02:39;17.38;;;15.40;;
9986;SDS011;5033;46.310;11.214;2023-03-19T06:05:07;18.15;;;16.15;;
9986;SDS011;5033;46.310;11.214;2023-03-19T06:07:35;17.08;;;15.27;;
9986;SDS011;5033;46.310;11.214;2023-03-19T06:10:04;17.08;;;15.07;;
9986;SDS011;5033;46.310;11.214;2023-03-19T06:12:32;17.38;;;15.45;;
9986;SDS011;5033;46.310;11.214;2023-03-19T06:14:59;17.15;;;15.27;;
9986;SDS011;5033;46.310;11.214;2023-03-19T06:17:26;21.75;;;17.23;;
9986;SDS011;5033;46.310;11.214;2023-03-19T06:19:53;17.67;;;15.85;;
9986;SDS011;5033;46.310;11.214;2023-03-19T06:22:20;17.80;;;15.90;;
9986;SDS011;5033;46.310;11.214;2023-03-19T06:24:47;18.63;;;16.15;;
9986;SDS011;5033;46.310;11.214;2023-03-19T06:27:15;16.92;;;15.15;;
9986;SDS011;5033;46.310;11.214;2023-03-19T06:29:42;17.75;;;15.27;;
9986;SDS011;5033;46.310;11.214;2023-03-19T06:32:09;17.35;;;15.35;;
9986;SDS011;5033;46.310;11.214;2023-03-19T06:34:36;21.20;;;18.48;;
9986;SDS011;5033;46.310;11.214;2023-03-19T06:37:03;23.00;;;19.02;;
9986;SDS011;5033;46.310;11.214;2023-03-19T06:39:31;22.02;;;18.70;;
9986;SDS011;5033;46.310;11.214;2023-03-19T06:41:59;21.73;;;18.48;;
9986;SDS011;5033;46.310;11.214;2023-03-19T06:44:27;20.15;;;17.95;;
9986;SDS011;5033;46.310;11.214;2023-03-19T06:46:54;21.20;;;18.98;;
9986;SDS011;5033;46.310;11.214;2023-03-19T06:49:21;23.95;;;18.85;;
9986;SDS011;5033;46.310;11.214;2023-03-19T06:51:48;20.58;;;16.98;;
9986;SDS011;5033;46.310;11.214;2023-03-19T06:54:15;22.42;;;20.02;;
9986;SDS011;5033;46.310;11.214;2023-03-19T06:56:42;21.15;;;18.75;;
9986;SDS011;5033;46.310;11.214;2023-03-19T06:59:10;20.83;;;18.63;;
9986;SDS011;5033;46.310;11.214;2023-03-19T07:01:38;21.02;;;18.63;;
9986;SDS011;5033;46.310;11.214;2023-03-19T07:04:07;21.58;;;18.52;;
9986;SDS011;5033;46.310;11.214;2023-03-19T07:06:34;22.65;;;19.50;;
9986;SDS011;5033;46.310;11.214;2023-03-19T07:09:01;22.30;;;18.70;;
9986;SDS011;5033;46.310;11.214;2023-03-19T07:11:28;20.42;;;18.27;;
9986;SDS011;5033;46.310;11.214;2023-03-19T07:13:55;21.42;;;19.13;;
9986;SDS011;5033;46.310;11.214;2023-03-19T07:16:22;20.30;;;18.17;;
9986;SDS011;5033;46.310;11.214;2023-03-19T07:18:50;19.95;;;17.63;;
9986;SDS011;5033;46.310;11.214;2023-03-19T07:21:17;19.92;;;17.92;;
9986;SDS011;5033;46.310;11.214;2023-03-19T07:23:44;21.42;;;19.02;;
9986;SDS011;5033;46.310;11.214;2023-03-19T07:26:11;22.30;;;19.65;;
9986;SDS011;5033;46.310;11.214;2023-03-19T07:28:38;21.77;;;18.70;;
9986;SDS011;5033;46.310;11.214;2023-03-19T07:31:05;20.80;;;18.67;;
9986;SDS011;5033;46.310;11.214;2023-03-19T07:33:32;22.80;;;18.83;;
9986;SDS011;5033;46.310;11.214;2023-03-19T07:36:01;21.60;;;19.30;;
9986;SDS011;5033;46.310;11.214;2023-03-19T07:38:28;22.23;;;19.83;;
9986;SDS011;5033;46.310;11.214;2023-03-19T07:40:54;21.00;;;18.80;;
9986;SDS011;5033;46.310;11.214;2023-03-19T07:43:22;20.80;;;17.95;;
9986;SDS011;5033;46.310;11.214;2023-03-19T07:45:48;20.55;;;18.25;;
9986;SDS011;5033;46.310;11.214;2023-03-19T07:48:15;19.83;;;17.70;;
9986;SDS011;5033;46.310;11.214;2023-03-19T07:50:43;20.00;;;17.85;;
9986;SDS011;5033;46.310;11.214;2023-03-19T07:53:11;20.00;;;17.65;;
9986;SDS011;5033;46.310;11.214;2023-03-19T07:55:38;20.35;;;18.00;;
9986;SDS011;5033;46.310;11.214;2023-03-19T07:58:05;22.85;;;19.90;;
9986;SDS011;5033;46.310;11.214;2023-03-19T08:00:32;21.13;;;18.80;;
9986;SDS011;5033;46.310;11.214;2023-03-19T08:02:59;21.20;;;18.85;;
9986;SDS011;5033;46.310;11.214;2023-03-19T08:05:26;25.92;;;20.58;;
9986;SDS011;5033;46.310;11.214;2023-03-19T08:07:53;22.23;;;19.35;;
9986;SDS011;5033;46.310;11.214;2023-03-19T08:10:21;21.35;;;19.08;;
9986;SDS011;5033;46.310;11.214;2023-03-19T08:12:48;24.17;;;21.08;;
9986;SDS011;5033;46.310;11.214;2023-03-19T08:15:15;24.50;;;20.80;;
9986;SDS011;5033;46.310;11.214;2023-03-19T08:17:42;24.52;;;21.05;;
9986;SDS011;5033;46.310;11.214;2023-03-19T08:20:10;22.15;;;18.92;;
9986;SDS011;5033;46.310;11.214;2023-03-19T08:22:40;21.60;;;19.30;;
9986;SDS011;5033;46.310;11.214;2023-03-19T08:25:08;22.52;;;20.10;;
9986;SDS011;5033;46.310;11.214;2023-03-19T08:27:37;22.48;;;20.10;;
9986;SDS011;5033;46.310;11.214;2023-03-19T08:30:05;19.67;;;17.63;;
9986;SDS011;5033;46.310;11.214;2023-03-19T08:32:34;22.90;;;20.58;;
9986;SDS011;5033;46.310;11.214;2023-03-19T08:35:01;22.42;;;20.15;;
9986;SDS011;5033;46.310;11.214;2023-03-19T08:37:28;23.25;;;20.45;;
9986;SDS011;5033;46.310;11.214;2023-03-19T08:39:55;21.73;;;19.40;;
9986;SDS011;5033;46.310;11.214;2023-03-19T08:42:22;21.65;;;19.38;;
9986;SDS011;5033;46.310;11.214;2023-03-19T08:44:51;22.08;;;19.33;;
9986;SDS011;5033;46.310;11.214;2023-03-19T08:47:18;22.23;;;19.92;;
9986;SDS011;5033;46.310;11.214;2023-03-19T08:49:48;21.17;;;18.65;;
9986;SDS011;5033;46.310;11.214;2023-03-19T08:52:15;20.77;;;18.63;;
9986;SDS011;5033;46.310;11.214;2023-03-19T08:54:42;22.42;;;19.35;;
9986;SDS011;5033;46.310;11.214;2023-03-19T08:57:09;23.42;;;20.90;;
9986;SDS011;5033;46.310;11.214;2023-03-19T08:59:36;23.98;;;20.58;;
9986;SDS011;5033;46.310;11.214;2023-03-19T09:02:04;22.95;;;20.55;;
9986;SDS011;5033;46.310;11.214;2023-03-19T09:04:31;22.80;;;20.33;;
9986;SDS011;5033;46.310;11.214;2023-03-19T09:07:03;22.02;;;19.63;;
9986;SDS011;5033;46.310;11.214;2023-03-19T09:09:30;21.05;;;18.85;;
9986;SDS011;5033;46.310;11.214;2023-03-19T09:11:57;21.33;;;19.00;;
9986;SDS011;5033;46.310;11.214;2023-03-19T09:14:24;22.30;;;19.33;;
9986;SDS011;5033;46.310;11.214;2023-03-19T09:16:51;20.45;;;18.00;;
9986;SDS011;5033;46.310;11.214;2023-03-19T09:19:21;20.83;;;18.63;;
9986;SDS011;5033;46.310;11.214;2023-03-19T09:21:48;21.85;;;18.95;;
9986;SDS011;5033;46.310;11.214;2023-03-19T09:24:15;20.98;;;18.23;;
9986;SDS011;5033;46.310;11.214;2023-03-19T09:26:42;20.98;;;17.98;;
9986;SDS011;5033;46.310;11.214;2023-03-19T09:29:10;23.08;;;19.48;;
9986;SDS011;5033;46.310;11.214;2023-03-19T09:31:37;21.80;;;19.50;;
9986;SDS011;5033;46.310;11.214;2023-03-19T09:34:04;21.50;;;19.20;;
9986;SDS011;5033;46.310;11.214;2023-03-19T09:36:34;21.23;;;18.92;;
9986;SDS011;5033;46.310;11.214;2023-03-19T09:39:02;20.10;;;18.00;;
9986;SDS011;5033;46.310;11.214;2023-03-19T09:41:31;21.00;;;18.63;;
9986;SDS011;5033;46.310;11.214;2023-03-19T09:44:08;19.77;;;17.65;;
9986;SDS011;5033;46.310;11.214;2023-03-19T09:46:39;21.23;;;18.92;;
9986;SDS011;5033;46.310;11.214;2023-03-19T09:49:11;20.75;;;18.33;;
9986;SDS011;5033;46.310;11.214;2023-03-19T09:51:46;21.15;;;18.67;;
9986;SDS011;5033;46.310;11.214;2023-03-19T09:54:19;19.75;;;17.65;;
9986;SDS011;5033;46.310;11.214;2023-03-19T09:56:57;19.85;;;17.75;;
9986;SDS011;5033;46.310;11.214;2023-03-19T09:59:25;21.65;;;19.23;;
9986;SDS011;5033;46.310;11.214;2023-03-19T10:01:57;21.92;;;19.42;;
9986;SDS011;5033;46.310;11.214;2023-03-19T10:04:39;21.33;;;17.80;;
9986;SDS011;5033;46.310;11.214;2023-03-19T10:07:21;23.33;;;18.80;;
9986;SDS011;5033;46.310;11.214;2023-03-19T10:09:59;20.92;;;18.13;;
9986;SDS011;5033;46.310;11.214;2023-03-19T10:12:41;24.05;;;20.48;;
9986;SDS011;5033;46.310;11.214;2023-03-19T10:15:15;21.15;;;18.92;;
9986;SDS011;5033;46.310;11.214;2023-03-19T10:17:47;22.75;;;20.35;;
9986;SDS011;5033;46.310;11.214;2023-03-19T10:20:21;27.85;;;20.40;;
9986;SDS011;5033;46.310;11.214;2023-03-19T10:22:58;22.85;;;19.83;;
9986;SDS011;5033;46.310;11.214;2023-03-19T10:25:36;22.63;;;20.20;;
9986;SDS011;5033;46.310;11.214;2023-03-19T10:28:06;21.88;;;19.48;;
9986;SDS011;5033;46.310;11.214;2023-03-19T10:30:40;21.92;;;19.63;;
9986;SDS011;5033;46.310;11.214;2023-03-19T10:33:12;22.02;;;19.60;;
9986;SDS011;5033;46.310;11.214;2023-03-19T10:35:47;25.27;;;20.77;;
9986;SDS011;5033;46.310;11.214;2023-03-19T10:38:23;22.48;;;20.08;;
9986;SDS011;5033;46.310;11.214;2023-03-19T10:41:02;23.23;;;20.83;;
9986;SDS011;5033;46.310;11.214;2023-03-19T10:43:36;24.25;;;21.17;;
9986;SDS011;5033;46.310;11.214;2023-03-19T10:46:10;23.23;;;20.73;;
9986;SDS011;5033;46.310;11.214;2023-03-19T10:48:41;22.90;;;20.50;;
9986;SDS011;5033;46.310;11.214;2023-03-19T10:51:09;23.17;;;20.70;;
9986;SDS011;5033;46.310;11.214;2023-03-19T10:53:42;23.50;;;20.95;;
9986;SDS011;5033;46.310;11.214;2023-03-19T10:56:15;23.63;;;21.02;;
9986;SDS011;5033;46.310;11.214;2023-03-19T10:58:54;24.60;;;21.60;;
9986;SDS011;5033;46.310;11.214;2023-03-19T11:01:25;26.02;;;23.27;;
9986;SDS011;5033;46.310;11.214;2023-03-19T11:03:57;26.90;;;23.95;;
9986;SDS011;5033;46.310;11.214;2023-03-19T11:06:26;26.63;;;23.23;;
9986;SDS011;5033;46.310;11.214;2023-03-19T11:08:58;23.75;;;21.20;;
9986;SDS011;5033;46.310;11.214;2023-03-19T11:11:31;25.17;;;22.48;;
9986;SDS011;5033;46.310;11.214;2023-03-19T11:14:11;22.08;;;19.77;;
9986;SDS011;5033;46.310;11.214;2023-03-19T11:16:50;27.67;;;21.80;;
9986;SDS011;5033;46.310;11.214;2023-03-19T11:19:22;22.85;;;20.40;;
9986;SDS011;5033;46.310;11.214;2023-03-19T11:21:58;24.27;;;21.77;;
9986;SDS011;5033;46.310;11.214;2023-03-19T11:24:31;21.65;;;19.35;;
9986;SDS011;5033;46.310;11.214;2023-03-19T11:26:59;22.85;;;20.45;;
9986;SDS011;5033;46.310;11.214;2023-03-19T11:29:27;23.90;;;20.23;;
9986;SDS011;5033;46.310;11.214;2023-03-19T11:31:57;22.50;;;20.08;;
9986;SDS011;5033;46.310;11.214;2023-03-19T11:34:32;22.45;;;20.15;;
9986;SDS011;5033;46.310;11.214;2023-03-19T11:37:07;21.73;;;19.30;;
9986;SDS011;5033;46.310;11.214;2023-03-19T11:39:43;23.58;;;21.10;;
9986;SDS011;5033;46.310;11.214;2023-03-19T11:42:24;23.23;;;20.10;;
9986;SDS011;5033;46.310;11.214;2023-03-19T11:45:07;24.92;;;22.10;;
9986;SDS011;5033;46.310;11.214;2023-03-19T11:47:43;24.60;;;21.92;;
9986;SDS011;5033;46.310;11.214;2023-03-19T11:50:19;24.02;;;21.42;;
9986;SDS011;5033;46.310;11.214;2023-03-19T11:52:54;25.05;;;21.35;;
9986;SDS011;5033;46.310;11.214;2023-03-19T11:55:29;22.17;;;19.83;;
9986;SDS011;5033;46.310;11.214;2023-03-19T11:58:19;21.73;;;19.30;;
9986;SDS011;5033;46.310;11.214;2023-03-19T12:01:08;19.80;;;17.70;;
9986;SDS011;5033;46.310;11.214;2023-03-19T12:03:49;21.92;;;19.63;;
9986;SDS011;5033;46.310;11.214;2023-03-19T12:06:43;23.25;;;20.75;;
9986;SDS011;5033;46.310;11.214;2023-03-19T12:09:20;25.73;;;22.25;;
9986;SDS011;5033;46.310;11.214;2023-03-19T12:11:56;23.25;;;20.77;;
9986;SDS011;5033;46.310;11.214;2023-03-19T12:14:36;20.88;;;18.77;;
9986;SDS011;5033;46.310;11.214;2023-03-19T12:17:21;20.35;;;18.20;;
9986;SDS011;5033;46.310;11.214;2023-03-19T12:20:01;23.48;;;20.50;;
9986;SDS011;5033;46.310;11.214;2023-03-19T12:22:55;28.17;;;23.02;;
9986;SDS011;5033;46.310;11.214;2023-03-19T12:25:42;27.42;;;23.58;;
9986;SDS011;5033;46.310;11.214;2023-03-19T12:28:21;25.90;;;23.05;;
9986;SDS011;5033;46.310;11.214;2023-03-19T12:30:55;25.00;;;22.35;;
9986;SDS011;5033;46.310;11.214;2023-03-19T12:33:37;23.50;;;21.00;;
9986;SDS011;5033;46.310;11.214;2023-03-19T12:36:12;21.88;;;19.40;;
9986;SDS011;5033;46.310;11.214;2023-03-19T12:38:48;21.60;;;19.30;;
9986;SDS011;5033;46.310;11.214;2023-03-19T12:41:19;18.45;;;16.25;;
9986;SDS011;5033;46.310;11.214;2023-03-19T12:43:52;16.23;;;14.52;;
9986;SDS011;5033;46.310;11.214;2023-03-19T12:46:25;17.95;;;13.93;;
9986;SDS011;5033;46.310;11.214;2023-03-19T12:48:57;13.27;;;11.85;;
9986;SDS011;5033;46.310;11.214;2023-03-19T12:51:29;14.43;;;12.93;;
9986;SDS011;5033;46.310;11.214;2023-03-19T12:54:02;12.95;;;11.63;;
9986;SDS011;5033;46.310;11.214;2023-03-19T12:56:34;15.27;;;13.35;;
9986;SDS011;5033;46.310;11.214;2023-03-19T12:59:08;14.60;;;13.10;;
9986;SDS011;5033;46.310;11.214;2023-03-19T13:01:40;15.52;;;13.93;;
9986;SDS011;5033;46.310;11.214;2023-03-19T13:04:12;14.18;;;12.68;;
9986;SDS011;5033;46.310;11.214;2023-03-19T13:06:44;16.52;;;14.88;;
9986;SDS011;5033;46.310;11.214;2023-03-19T13:09:19;19.10;;;17.05;;
9986;SDS011;5033;46.310;11.214;2023-03-19T13:11:54;17.75;;;15.98;;
9986;SDS011;5033;46.310;11.214;2023-03-19T13:14:30;18.95;;;16.95;;
9986;SDS011;5033;46.310;11.214;2023-03-19T13:17:06;17.92;;;15.85;;
9986;SDS011;5033;46.310;11.214;2023-03-19T13:19:41;19.15;;;15.63;;
9986;SDS011;5033;46.310;11.214;2023-03-19T13:22:11;18.30;;;16.38;;
9986;SDS011;5033;46.310;11.214;2023-03-19T13:24:41;19.48;;;17.42;;
9986;SDS011;5033;46.310;11.214;2023-03-19T13:27:13;19.48;;;17.48;;
9986;SDS011;5033;46.310;11.214;2023-03-19T13:29:53;17.55;;;15.43;;
9986;SDS011;5033;46.310;11.214;2023-03-19T13:32:29;17.40;;;15.13;;
9986;SDS011;5033;46.310;11.214;2023-03-19T13:37:54;15.35;;;13.82;;
9986;SDS011;5033;46.310;11.214;2023-03-19T13:46:34;17.92;;;16.02;;
9986;SDS011;5033;46.310;11.214;2023-03-19T13:51:52;18.52;;;16.55;;
9986;SDS011;5033;46.310;11.214;2023-03-19T13:54:30;22.65;;;19.05;;
9986;SDS011;5033;46.310;11.214;2023-03-19T13:57:19;18.77;;;16.77;;
9986;SDS011;5033;46.310;11.214;2023-03-19T14:03:19;17.50;;;15.77;;
9986;SDS011;5033;46.310;11.214;2023-03-19T14:05:47;18.38;;;15.50;;
9986;SDS011;5033;46.310;11.214;2023-03-19T14:08:17;18.10;;;15.65;;
9986;SDS011;5033;46.310;11.214;2023-03-19T14:10:47;17.02;;;15.23;;
9986;SDS011;5033;46.310;11.214;2023-03-19T14:13:18;16.77;;;14.95;;
9986;SDS011;5033;46.310;11.214;2023-03-19T14:15:51;18.08;;;16.15;;
9986;SDS011;5033;46.310;11.214;2023-03-19T14:18:26;19.48;;;17.48;;
9986;SDS011;5033;46.310;11.214;2023-03-19T14:20:56;18.75;;;16.63;;
9986;SDS011;5033;46.310;11.214;2023-03-19T14:23:26;17.80;;;16.00;;
9986;SDS011;5033;46.310;11.214;2023-03-19T14:25:58;18.30;;;16.17;;
9986;SDS011;5033;46.310;11.214;2023-03-19T14:28:44;18.88;;;15.68;;
9986;SDS011;5033;46.310;11.214;2023-03-19T14:31:20;16.92;;;14.38;;
9986;SDS011;5033;46.310;11.214;2023-03-19T14:33:54;16.88;;;14.77;;
9986;SDS011;5033;46.310;11.214;2023-03-19T14:36:24;17.50;;;14.25;;
9986;SDS011;5033;46.310;11.214;2023-03-19T14:38:53;15.70;;;14.10;;
9986;SDS011;5033;46.310;11.214;2023-03-19T14:41:24;15.57;;;13.98;;
9986;SDS011;5033;46.310;11.214;2023-03-19T14:44:08;15.40;;;13.52;;
9986;SDS011;5033;46.310;11.214;2023-03-19T14:50:02;12.23;;;10.93;;
9986;SDS011;5033;46.310;11.214;2023-03-19T14:52:57;16.15;;;12.95;;
9986;SDS011;5033;46.310;11.214;2023-03-19T14:55:34;16.30;;;12.73;;
9986;SDS011;5033;46.310;11.214;2023-03-19T14:58:02;15.32;;;12.88;;
9986;SDS011;5033;46.310;11.214;2023-03-19T15:00:36;16.27;;;14.43;;
9986;SDS011;5033;46.310;11.214;2023-03-19T15:03:16;13.88;;;12.48;;
9986;SDS011;5033;46.310;11.214;2023-03-19T15:05:47;12.52;;;11.23;;
9986;SDS011;5033;46.310;11.214;2023-03-19T15:08:19;15.40;;;11.57;;
9986;SDS011;5033;46.310;11.214;2023-03-19T15:10:50;13.57;;;12.18;;
9986;SDS011;5033;46.310;11.214;2023-03-19T15:13:31;15.25;;;12.38;;
9986;SDS011;5033;46.310;11.214;2023-03-19T15:16:12;14.32;;;12.30;;
9986;SDS011;5033;46.310;11.214;2023-03-19T15:18:50;12.20;;;10.90;;
9986;SDS011;5033;46.310;11.214;2023-03-19T15:21:19;13.35;;;11.70;;